createdAt,value
2019-03-22T00:01:19.304Z,102428.55
2019-03-22T00:03:50.042Z,102442.63
2019-03-22T00:06:17.669Z,102441.78
2019-03-22T00:08:45.337Z,102445.30
2019-03-22T00:11:12.983Z,102456.70
2019-03-22T00:13:43.226Z,102460.59
2019-03-22T00:16:12.905Z,102460.55
2019-03-22T00:18:40.540Z,102473.66
2019-03-22T00:21:09.696Z,102481.03
2019-03-22T00:23:37.320Z,102483.61
2019-03-22T00:26:04.946Z,102491.02
2019-03-22T00:28:32.575Z,102495.79
2019-03-22T00:31:00.180Z,102504.08
2019-03-22T00:33:27.803Z,102506.66
2019-03-22T00:35:59.559Z,102511.04
2019-03-22T00:38:27.169Z,102518.83
2019-03-22T00:40:54.778Z,102524.47
2019-03-22T00:43:24.726Z,102529.68
2019-03-22T00:45:52.402Z,102542.78
2019-03-22T00:48:20.135Z,102542.77
2019-03-22T00:50:47.791Z,102543.14
2019-03-22T00:53:15.455Z,102548.34
2019-03-22T00:55:43.061Z,102548.79
2019-03-22T00:58:10.678Z,102552.69
2019-03-22T01:00:38.324Z,102560.56
2019-03-22T01:03:05.953Z,102571.02
2019-03-22T01:05:38.893Z,102582.30
2019-03-22T01:08:06.544Z,102593.63
2019-03-22T01:10:34.275Z,102596.58
2019-03-22T01:13:02.981Z,102600.89
2019-03-22T01:15:30.613Z,102605.21
2019-03-22T01:17:58.290Z,102611.27
2019-03-22T01:20:25.886Z,102612.47
2019-03-22T01:22:53.748Z,102620.77
2019-03-22T01:25:23.949Z,102625.97
2019-03-22T01:27:53.594Z,102632.96
2019-03-22T01:30:22.632Z,102638.58
2019-03-22T01:32:52.937Z,102640.71
2019-03-22T01:35:20.548Z,102647.22
2019-03-22T01:37:48.161Z,102658.97
2019-03-22T01:40:19.365Z,102659.27
2019-03-22T01:42:49.479Z,102662.69
2019-03-22T01:45:18.847Z,102661.23
2019-03-22T01:47:46.448Z,102666.36
2019-03-22T01:50:14.448Z,102665.84
2019-03-22T01:52:42.078Z,102668.82
2019-03-22T01:55:09.768Z,102674.81
2019-03-22T01:57:37.387Z,102668.22
2019-03-22T02:00:06.707Z,102672.48
2019-03-22T02:02:34.631Z,102675.01
2019-03-22T02:05:02.723Z,102668.78
2019-03-22T02:07:30.336Z,102674.79
2019-03-22T02:09:58.053Z,102676.89
2019-03-22T02:12:25.698Z,102675.98
2019-03-22T02:14:55.666Z,102672.78
2019-03-22T02:17:24.631Z,102679.24
2019-03-22T02:19:52.196Z,102678.73
2019-03-22T02:22:21.935Z,102686.98
2019-03-22T02:27:22.983Z,102687.41
2019-03-22T02:29:50.645Z,102686.91
2019-03-22T02:32:18.310Z,102681.13
2019-03-22T02:34:47.827Z,102683.24
2019-03-22T02:37:15.542Z,102677.04
2019-03-22T02:39:46.263Z,102683.95
2019-03-22T02:42:14.228Z,102683.47
2019-03-22T02:44:41.821Z,102680.28
2019-03-22T02:47:09.474Z,102686.28
2019-03-22T02:49:38.811Z,102681.81
2019-03-22T02:52:08.679Z,102682.62
2019-03-22T02:54:36.324Z,102679.89
2019-03-22T02:57:07.586Z,102683.17
2019-03-22T02:59:35.214Z,102686.88
2019-03-22T03:02:02.990Z,102695.38
2019-03-22T03:04:30.586Z,102705.66
2019-03-22T03:06:58.200Z,102699.73
2019-03-22T03:09:25.987Z,102699.58
2019-03-22T03:11:53.608Z,102710.77
2019-03-22T03:14:21.217Z,102718.89
2019-03-22T03:16:48.813Z,102727.16
2019-03-22T03:19:16.419Z,102727.06
2019-03-22T03:21:44.016Z,102730.05
2019-03-22T03:24:11.659Z,102726.88
2019-03-22T03:26:39.314Z,102724.92
2019-03-22T03:29:06.918Z,102729.97
2019-03-22T03:31:34.594Z,102743.27
2019-03-22T03:34:02.254Z,102743.53
2019-03-22T03:36:29.934Z,102742.06
2019-03-22T03:39:00.053Z,102749.33
2019-03-22T03:41:27.678Z,102753.91
2019-03-22T03:43:55.276Z,102757.23
2019-03-22T03:46:26.534Z,102768.03
2019-03-22T03:48:54.135Z,102772.66
2019-03-22T03:51:21.802Z,102776.00
2019-03-22T03:53:49.577Z,102792.83
2019-03-22T03:56:17.207Z,102794.42
2019-03-22T03:58:52.371Z,102804.84
2019-03-22T04:01:14.344Z,102805.63
2019-03-22T04:03:41.943Z,102806.40
2019-03-22T04:06:09.538Z,102800.53
2019-03-22T04:08:37.138Z,102808.23
2019-03-22T04:11:04.781Z,102811.59
2019-03-22T04:13:32.408Z,102813.63
2019-03-22T04:16:00.014Z,102820.52
2019-03-22T04:18:27.613Z,102829.21
2019-03-22T04:20:55.230Z,102819.17
2019-03-22T04:23:22.852Z,102820.48
2019-03-22T04:25:53.233Z,102812.99
2019-03-22T04:28:20.868Z,102820.69
2019-03-22T04:30:48.503Z,102824.08
2019-03-22T04:33:16.157Z,102819.62
2019-03-22T04:35:43.771Z,102831.34
2019-03-22T04:38:11.424Z,102836.92
2019-03-22T04:40:39.024Z,102837.30
2019-03-22T04:43:06.735Z,102839.80
2019-03-22T04:45:39.791Z,102838.38
2019-03-22T04:48:23.031Z,102845.69
2019-03-22T04:50:53.248Z,102846.00
2019-03-22T04:53:26.339Z,102847.19
2019-03-22T04:55:57.690Z,102851.53
2019-03-22T04:58:27.025Z,102856.68
2019-03-22T05:00:57.884Z,102855.22
2019-03-22T05:03:26.616Z,102870.01
2019-03-22T05:05:56.655Z,102878.20
2019-03-22T05:08:26.351Z,102883.03
2019-03-22T05:10:55.336Z,102889.14
2019-03-22T05:13:24.354Z,102892.64
2019-03-22T05:15:52.248Z,102901.78
2019-03-22T05:18:23.394Z,102908.62
2019-03-22T05:20:52.202Z,102916.34
2019-03-22T05:23:22.623Z,102922.28
2019-03-22T05:25:53.730Z,102931.84
2019-03-22T05:28:23.082Z,102934.38
2019-03-22T05:31:30.167Z,102938.77
2019-03-22T05:33:57.797Z,102936.66
2019-03-22T05:36:25.394Z,102941.58
2019-03-22T05:38:52.984Z,102941.16
2019-03-22T05:41:20.688Z,102945.20
2019-03-22T05:43:48.384Z,102946.09
2019-03-22T05:46:15.993Z,102950.55
2019-03-22T05:48:46.598Z,102953.33
2019-03-22T05:51:19.975Z,102962.25
2019-03-22T05:53:47.664Z,102963.72
2019-03-22T05:56:17.393Z,102970.84
2019-03-22T05:58:45.004Z,102968.81
2019-03-22T06:01:12.604Z,102982.12
2019-03-22T06:03:40.234Z,102976.70
2019-03-22T06:06:11.449Z,102987.45
2019-03-22T06:08:39.081Z,103002.52
2019-03-22T06:11:06.717Z,103009.77
2019-03-22T06:13:34.367Z,103009.11
2019-03-22T06:16:02.043Z,103011.95
2019-03-22T06:18:31.788Z,103009.50
2019-03-22T06:20:59.828Z,103014.96
2019-03-22T06:23:27.522Z,103016.54
2019-03-22T06:25:55.129Z,103025.89
2019-03-22T06:28:22.778Z,103030.92
2019-03-22T06:30:55.753Z,103035.11
2019-03-22T06:33:23.382Z,103033.49
2019-03-22T06:35:54.783Z,103032.80
2019-03-22T06:38:22.463Z,103045.23
2019-03-22T06:40:50.062Z,103057.66
2019-03-22T06:43:17.669Z,103057.88
2019-03-22T06:45:45.363Z,103053.98
2019-03-22T06:48:12.963Z,103051.94
2019-03-22T06:50:40.610Z,103048.19
2019-03-22T06:53:08.238Z,103047.88
2019-03-22T06:55:35.829Z,103054.14
2019-03-22T06:58:03.461Z,103062.22
2019-03-22T07:00:31.069Z,103068.06
2019-03-22T07:02:58.734Z,103073.48
2019-03-22T07:05:27.538Z,103058.78
2019-03-22T07:07:55.130Z,103062.07
2019-03-22T07:10:25.500Z,103068.91
2019-03-22T07:12:53.095Z,103070.34
2019-03-22T07:15:20.750Z,103068.36
2019-03-22T07:17:48.372Z,103066.72
2019-03-22T07:20:16.103Z,103066.02
2019-03-22T07:22:43.705Z,103071.00
2019-03-22T07:25:11.445Z,103077.75
2019-03-22T07:27:39.074Z,103074.05
2019-03-22T07:30:18.093Z,103076.02
2019-03-22T07:32:36.756Z,103080.16
2019-03-22T07:35:04.375Z,103079.42
2019-03-22T07:37:32.025Z,103073.92
2019-03-22T07:39:59.625Z,103080.70
2019-03-22T07:42:28.095Z,103080.47
2019-03-22T07:44:55.717Z,103080.22
2019-03-22T07:47:23.354Z,103076.47
2019-03-22T07:49:51.172Z,103076.33
2019-03-22T07:52:19.926Z,103078.37
2019-03-22T07:54:47.537Z,103086.20
2019-03-22T07:57:15.610Z,103082.58
2019-03-22T07:59:45.519Z,103091.67
2019-03-22T08:02:13.228Z,103094.75
2019-03-22T08:04:40.841Z,103094.63
2019-03-22T08:07:08.472Z,103097.82
2019-03-22T08:09:36.098Z,103087.37
2019-03-22T08:12:03.803Z,103084.67
2019-03-22T08:14:33.960Z,103082.13
2019-03-22T08:17:01.563Z,103089.64
2019-03-22T08:19:29.165Z,103089.08
2019-03-22T08:21:57.011Z,103090.97
2019-03-22T08:24:24.601Z,103093.06
2019-03-22T08:26:52.183Z,103085.98
2019-03-22T08:29:19.819Z,103095.16
2019-03-22T08:31:47.421Z,103095.66
2019-03-22T08:34:15.090Z,103096.08
2019-03-22T08:36:42.727Z,103110.28
2019-03-22T08:39:10.426Z,103105.09
2019-03-22T08:41:38.117Z,103106.41
2019-03-22T08:44:05.803Z,103106.91
2019-03-22T08:46:33.367Z,103109.05
2019-03-22T08:49:01.072Z,103100.15
2019-03-22T08:51:30.043Z,103103.64
2019-03-22T08:53:57.777Z,103096.47
2019-03-22T08:56:25.431Z,103095.84
2019-03-22T08:58:53.030Z,103096.55
2019-03-22T09:01:20.620Z,103091.22
2019-03-22T09:03:48.335Z,103089.52
2019-03-22T09:06:16.002Z,103088.55
2019-03-22T09:08:44.049Z,103092.83
2019-03-22T09:11:11.641Z,103088.77
2019-03-22T09:13:39.265Z,103072.66
2019-03-22T09:16:06.859Z,103074.08
2019-03-22T09:18:34.504Z,103063.96
2019-03-22T09:21:02.192Z,103062.89
2019-03-22T09:23:29.746Z,103063.23
2019-03-22T09:25:57.430Z,103058.70
2019-03-22T09:28:26.801Z,103061.20
2019-03-22T09:30:54.411Z,103060.90
2019-03-22T09:33:22.053Z,103067.03
2019-03-22T09:35:49.723Z,103059.61
2019-03-22T09:38:17.341Z,103061.81
2019-03-22T09:40:44.988Z,103060.97
2019-03-22T09:43:12.606Z,103056.19
2019-03-22T09:45:40.250Z,103061.03
2019-03-22T09:48:07.941Z,103055.31
2019-03-22T09:50:35.531Z,103059.27
2019-03-22T09:53:03.152Z,103056.70
2019-03-22T09:55:30.713Z,103053.04
2019-03-22T09:57:58.474Z,103045.52
2019-03-22T10:00:30.914Z,103040.73
2019-03-22T10:02:58.692Z,103037.27
2019-03-22T10:05:26.364Z,103040.86
2019-03-22T10:07:56.723Z,103041.73
2019-03-22T10:10:24.412Z,103033.45
2019-03-22T10:12:52.064Z,103033.20
2019-03-22T10:15:19.693Z,103031.48
2019-03-22T10:17:49.533Z,103027.59
2019-03-22T10:20:17.186Z,103021.50
2019-03-22T10:22:44.821Z,103028.66
2019-03-22T10:25:12.452Z,103022.89
2019-03-22T10:27:40.104Z,103017.97
2019-03-22T10:30:10.668Z,103018.46
2019-03-22T10:32:38.338Z,103018.95
2019-03-22T10:35:06.127Z,103015.38
2019-03-22T10:37:33.787Z,103007.95
2019-03-22T10:40:01.416Z,103003.13
2019-03-22T10:42:30.874Z,103006.67
2019-03-22T10:45:05.806Z,103005.36
2019-03-22T10:47:33.408Z,102994.78
2019-03-22T10:50:01.048Z,102989.09
2019-03-22T10:52:28.745Z,102987.36
2019-03-22T10:54:56.338Z,102986.94
2019-03-22T10:57:24.007Z,102983.44
2019-03-22T10:59:51.738Z,102976.84
2019-03-22T11:02:19.350Z,102972.41
2019-03-22T11:04:46.984Z,102959.14
2019-03-22T11:07:14.588Z,102959.59
2019-03-22T11:09:42.240Z,102961.80
2019-03-22T11:12:12.440Z,102951.19
2019-03-22T11:14:39.365Z,102952.12
2019-03-22T11:17:06.969Z,102948.10
2019-03-22T11:19:34.631Z,102934.87
2019-03-22T11:22:02.243Z,102935.28
2019-03-22T11:24:29.861Z,102937.91
2019-03-22T11:26:57.449Z,102940.14
2019-03-22T11:29:25.058Z,102926.02
2019-03-22T11:31:52.684Z,102917.16
2019-03-22T11:34:20.294Z,102917.59
2019-03-22T11:36:47.945Z,102911.82
2019-03-22T11:39:16.184Z,102905.56
2019-03-22T11:41:46.973Z,102905.97
2019-03-22T11:44:15.879Z,102894.86
2019-03-22T11:46:43.519Z,102897.09
2019-03-22T11:49:11.125Z,102885.66
2019-03-22T11:51:40.258Z,102886.05
2019-03-22T11:54:08.126Z,102889.52
2019-03-22T11:56:38.764Z,102882.86
2019-03-22T11:59:06.369Z,102886.00
2019-03-22T12:01:36.025Z,102886.45
2019-03-22T12:04:03.708Z,102881.03
2019-03-22T12:06:31.306Z,102876.61
2019-03-22T12:08:58.955Z,102869.55
2019-03-22T12:11:26.569Z,102878.03
2019-03-22T12:13:54.177Z,102869.16
2019-03-22T12:16:21.785Z,102870.06
2019-03-22T12:18:50.423Z,102877.09
2019-03-22T12:21:20.307Z,102877.94
2019-03-22T12:23:47.901Z,102872.65
2019-03-22T12:26:15.544Z,102872.17
2019-03-22T12:28:43.175Z,102862.86
2019-03-22T12:31:10.779Z,102861.06
2019-03-22T12:33:38.435Z,102860.61
2019-03-22T12:36:06.096Z,102856.69
2019-03-22T12:38:33.712Z,102850.16
2019-03-22T12:41:01.350Z,102853.25
2019-03-22T12:43:28.973Z,102851.92
2019-03-22T12:45:56.619Z,102856.34
2019-03-22T12:48:24.222Z,102840.39
2019-03-22T12:50:51.937Z,102843.05
2019-03-22T12:53:19.249Z,102839.06
2019-03-22T12:55:48.669Z,102824.04
2019-03-22T12:58:16.385Z,102828.50
2019-03-22T13:00:44.006Z,102817.91
2019-03-22T13:03:11.621Z,102821.05
2019-03-22T13:05:39.246Z,102819.78
2019-03-22T13:08:06.899Z,102813.64
2019-03-22T13:10:36.816Z,102818.50
2019-03-22T13:13:04.430Z,102808.33
2019-03-22T13:15:32.038Z,102806.56
2019-03-22T13:17:59.641Z,102795.06
2019-03-22T13:20:27.250Z,102782.67
2019-03-22T13:22:54.842Z,102782.70
2019-03-22T13:25:22.457Z,102776.50
2019-03-22T13:27:50.073Z,102779.14
2019-03-22T13:30:34.246Z,102766.27
2019-03-22T13:33:01.957Z,102765.80
2019-03-22T13:35:29.577Z,102767.92
2019-03-22T13:37:57.184Z,102756.02
2019-03-22T13:40:24.797Z,102752.02
2019-03-22T13:42:52.441Z,102749.34
2019-03-22T13:45:20.061Z,102745.34
2019-03-22T13:47:47.669Z,102741.34
2019-03-22T13:50:15.309Z,102743.95
2019-03-22T13:52:43.025Z,102742.58
2019-03-22T13:55:10.613Z,102727.52
2019-03-22T13:57:38.326Z,102731.09
2019-03-22T14:00:07.408Z,102718.70
2019-03-22T14:02:35.073Z,102721.31
2019-03-22T14:05:03.001Z,102726.16
2019-03-22T14:07:30.618Z,102715.05
2019-03-22T14:09:58.232Z,102716.39
2019-03-22T14:12:25.893Z,102700.42
2019-03-22T14:14:53.502Z,102699.09
2019-03-22T14:17:21.098Z,102695.12
2019-03-22T14:19:48.702Z,102690.68
2019-03-22T14:22:16.310Z,102685.34
2019-03-22T14:24:43.910Z,102692.84
2019-03-22T14:27:11.576Z,102688.92
2019-03-22T14:29:39.165Z,102682.28
2019-03-22T14:32:07.918Z,102678.74
2019-03-22T14:34:35.679Z,102679.68
2019-03-22T14:37:03.280Z,102666.81
2019-03-22T14:39:30.882Z,102669.50
2019-03-22T14:42:01.775Z,102665.13
2019-03-22T14:44:31.876Z,102661.67
2019-03-22T14:46:59.482Z,102663.00
2019-03-22T14:49:27.127Z,102664.88
2019-03-22T14:51:57.435Z,102645.50
2019-03-22T14:54:25.056Z,102641.59
2019-03-22T14:56:52.670Z,102634.98
2019-03-22T14:59:20.268Z,102632.81
2019-03-22T15:01:47.870Z,102645.20
2019-03-22T15:04:15.521Z,102643.56
2019-03-22T15:06:43.146Z,102635.23
2019-03-22T15:09:10.765Z,102641.45
2019-03-22T15:11:38.444Z,102634.79
2019-03-22T15:14:12.994Z,102629.95
2019-03-22T15:16:52.841Z,102643.29
2019-03-22T15:19:37.010Z,102645.06
2019-03-22T15:22:29.979Z,102642.45
2019-03-22T15:25:15.787Z,102642.06
2019-03-22T15:28:15.218Z,102631.48
2019-03-22T15:31:00.943Z,102616.48
2019-03-22T15:33:48.467Z,102606.34
2019-03-22T15:36:34.416Z,102604.56
2019-03-22T15:39:30.952Z,102605.89
2019-03-22T15:41:58.766Z,102600.59
2019-03-22T15:44:26.425Z,102597.02
2019-03-22T15:46:54.080Z,102592.16
2019-03-22T15:49:21.651Z,102583.72
2019-03-22T15:51:49.489Z,102583.70
2019-03-22T15:54:17.102Z,102579.69
2019-03-22T15:56:44.722Z,102576.62
2019-03-22T15:59:12.379Z,102577.48
2019-03-22T16:01:42.463Z,102573.89
2019-03-22T16:04:10.127Z,102575.21
2019-03-22T16:06:37.700Z,102571.19
2019-03-22T16:09:06.959Z,102581.71
2019-03-22T16:11:37.358Z,102574.64
2019-03-22T16:14:05.214Z,102570.59
2019-03-22T16:16:32.834Z,102569.63
2019-03-22T16:19:00.446Z,102556.85
2019-03-22T16:21:28.046Z,102542.71
2019-03-22T16:23:55.655Z,102544.84
2019-03-22T16:26:23.274Z,102532.06
2019-03-22T16:28:50.922Z,102527.18
2019-03-22T16:31:18.853Z,102517.92
2019-03-22T16:33:53.998Z,102519.25
2019-03-22T16:36:16.148Z,102518.75
2019-03-22T16:38:45.171Z,102505.54
2019-03-22T16:41:12.775Z,102502.86
2019-03-22T16:43:40.586Z,102495.35
2019-03-22T16:46:08.182Z,102493.59
2019-03-22T16:48:35.805Z,102494.89
2019-03-22T16:51:03.544Z,102497.91
2019-03-22T16:53:31.166Z,102487.31
2019-03-22T16:55:58.800Z,102482.42
2019-03-22T16:58:26.415Z,102475.80
2019-03-22T17:00:54.032Z,102480.16
2019-03-22T17:03:21.629Z,102469.16
2019-03-22T17:05:49.268Z,102472.58
2019-03-22T17:08:16.875Z,102460.28
2019-03-22T17:10:44.934Z,102464.70
2019-03-22T17:13:12.871Z,102462.00
2019-03-22T17:15:43.408Z,102464.64
2019-03-22T17:18:11.243Z,102456.30
2019-03-22T17:20:41.272Z,102442.15
2019-03-22T17:23:08.913Z,102455.73
2019-03-22T17:25:39.080Z,102454.24
2019-03-22T17:28:06.699Z,102447.22
2019-03-22T17:30:36.843Z,102450.29
2019-03-22T17:33:04.585Z,102446.81
2019-03-22T17:35:32.204Z,102445.91
2019-03-22T17:37:59.850Z,102444.95
2019-03-22T17:40:27.438Z,102448.84
2019-03-22T17:42:55.043Z,102432.97
2019-03-22T17:45:22.643Z,102429.02
2019-03-22T17:47:50.251Z,102428.50
2019-03-22T17:50:18.153Z,102420.13
2019-03-22T17:52:45.748Z,102424.11
2019-03-22T17:55:14.065Z,102419.73
2019-03-22T17:57:41.668Z,102417.06
2019-03-22T18:00:09.351Z,102417.06
2019-03-22T18:02:36.957Z,102406.05
2019-03-22T18:05:05.472Z,102402.52
2019-03-22T18:07:33.067Z,102410.44
2019-03-22T18:10:00.696Z,102404.23
2019-03-22T18:12:28.300Z,102401.23
2019-03-22T18:14:55.929Z,102399.44
2019-03-22T18:17:23.527Z,102402.00
2019-03-22T18:19:51.133Z,102402.07
2019-03-22T18:22:18.740Z,102400.79
2019-03-22T18:24:46.356Z,102396.84
2019-03-22T18:27:13.987Z,102390.73
2019-03-22T18:29:41.578Z,102377.98
2019-03-22T18:32:09.174Z,102372.72
2019-03-22T18:34:37.605Z,102361.31
2019-03-22T18:37:05.354Z,102356.95
2019-03-22T18:39:32.988Z,102351.16
2019-03-22T18:42:01.518Z,102348.08
2019-03-22T18:44:29.144Z,102342.45
2019-03-22T18:46:56.779Z,102337.55
2019-03-22T18:49:24.424Z,102332.33
2019-03-22T18:51:52.019Z,102318.19
2019-03-22T18:54:19.637Z,102313.77
2019-03-22T18:56:47.255Z,102301.93
2019-03-22T18:59:14.906Z,102297.07
2019-03-22T19:01:42.519Z,102288.27
2019-03-22T19:04:10.124Z,102280.34
2019-03-22T19:06:37.718Z,102275.52
2019-03-22T19:09:06.732Z,102282.94
2019-03-22T19:11:34.334Z,102271.98
2019-03-22T19:14:01.940Z,102264.08
2019-03-22T19:16:29.562Z,102263.67
2019-03-22T19:18:57.151Z,102270.19
2019-03-22T19:21:24.748Z,102262.33
2019-03-22T19:23:52.349Z,102245.67
2019-03-22T19:26:19.943Z,102243.44
2019-03-22T19:28:47.571Z,102241.72
2019-03-22T19:31:15.217Z,102223.23
2019-03-22T19:33:42.806Z,102214.57
2019-03-22T19:36:10.406Z,102211.47
2019-03-22T19:38:38.024Z,102222.90
2019-03-22T19:41:05.626Z,102220.77
2019-03-22T19:43:33.211Z,102219.42
2019-03-22T19:46:00.815Z,102221.14
2019-03-22T19:48:28.437Z,102218.05
2019-03-22T19:50:56.039Z,102205.36
2019-03-22T19:53:23.645Z,102200.59
2019-03-22T19:55:51.247Z,102205.02
2019-03-22T19:58:18.854Z,102205.04
2019-03-22T20:00:46.479Z,102212.90
2019-03-22T20:03:14.098Z,102213.78
2019-03-22T20:05:41.699Z,102214.69
2019-03-22T20:08:12.788Z,102223.48
2019-03-22T20:10:38.840Z,102213.84
2019-03-22T20:13:06.467Z,102204.62
2019-03-22T20:15:34.070Z,102182.20
2019-03-22T20:18:01.667Z,102168.58
2019-03-22T20:20:29.258Z,102172.11
2019-03-22T20:22:56.853Z,102166.86
2019-03-22T20:25:24.467Z,102180.02
2019-03-22T20:27:52.079Z,102166.85
2019-03-22T20:30:20.211Z,102154.16
2019-03-22T20:32:47.961Z,102136.16
2019-03-22T20:35:17.078Z,102144.48
2019-03-22T20:37:44.911Z,102145.83
2019-03-22T20:40:12.950Z,102144.52
2019-03-22T20:42:40.542Z,102131.80
2019-03-22T20:45:09.055Z,102139.27
2019-03-22T20:47:36.666Z,102129.17
2019-03-22T20:50:04.467Z,102131.39
2019-03-22T20:52:32.024Z,102130.95
2019-03-22T20:54:59.630Z,102127.44
2019-03-22T20:57:27.241Z,102126.94
2019-03-22T20:59:54.849Z,102120.81
2019-03-22T21:02:22.471Z,102105.95
2019-03-22T21:04:50.097Z,102105.92
2019-03-22T21:07:17.892Z,102094.55
2019-03-22T21:09:45.464Z,102087.48
2019-03-22T21:12:13.090Z,102083.99
2019-03-22T21:14:40.706Z,102079.61
2019-03-22T21:17:08.331Z,102082.24
2019-03-22T21:19:35.939Z,102079.19
2019-03-22T21:22:06.333Z,102069.52
2019-03-22T21:24:33.975Z,102057.23
2019-03-22T21:27:01.681Z,102040.14
2019-03-22T21:29:29.312Z,102033.53
2019-03-22T21:31:56.919Z,102036.62
2019-03-22T21:34:24.591Z,102030.45
2019-03-22T21:36:52.193Z,102023.89
2019-03-22T21:39:19.788Z,102022.59
2019-03-22T21:41:47.448Z,102016.41
2019-03-22T21:44:15.323Z,102013.37
2019-03-22T21:46:42.919Z,102004.56
2019-03-22T21:49:10.562Z,102004.14
2019-03-22T21:51:38.410Z,101993.20
2019-03-22T21:54:06.029Z,101995.81
2019-03-22T21:56:33.745Z,101994.50
2019-03-22T21:59:01.384Z,101991.45
2019-03-22T22:01:28.988Z,101983.09
2019-03-22T22:03:56.579Z,101992.75
2019-03-22T22:06:24.173Z,101988.34
2019-03-22T22:08:51.785Z,101975.63
2019-03-22T22:11:19.391Z,101973.46
2019-03-22T22:13:47.006Z,101966.86
2019-03-22T22:16:14.607Z,101946.24
2019-03-22T22:18:42.211Z,101956.70
2019-03-22T22:21:09.822Z,101954.03
2019-03-22T22:23:37.469Z,101936.53
2019-03-22T22:26:05.026Z,101930.37
2019-03-22T22:28:32.628Z,101925.98
2019-03-22T22:31:00.415Z,101925.55
2019-03-22T22:33:28.185Z,101913.72
2019-03-22T22:35:58.790Z,101914.14
2019-03-22T22:38:25.568Z,101908.42
2019-03-22T22:40:53.160Z,101911.92
2019-03-22T22:43:20.792Z,101909.30
2019-03-22T22:45:48.383Z,101906.23
2019-03-22T22:48:16.024Z,101903.19
2019-03-22T22:50:43.607Z,101907.13
2019-03-22T22:53:11.196Z,101897.50
2019-03-22T22:55:38.853Z,101891.34
2019-03-22T22:58:06.447Z,101889.61
2019-03-22T23:00:34.572Z,101880.84
2019-03-22T23:03:02.177Z,101876.03
2019-03-22T23:05:29.774Z,101871.20
2019-03-22T23:07:57.373Z,101876.48
2019-03-22T23:10:25.161Z,101871.21
2019-03-22T23:12:52.846Z,101865.52
2019-03-22T23:15:20.486Z,101863.75
2019-03-22T23:17:48.089Z,101859.38
2019-03-22T23:20:15.755Z,101864.20
2019-03-22T23:22:43.360Z,101852.39
2019-03-22T23:25:11.058Z,101848.88
2019-03-22T23:27:38.660Z,101848.02
2019-03-22T23:30:07.353Z,101851.53
2019-03-22T23:32:35.100Z,101826.54
2019-03-22T23:35:03.108Z,101819.07
2019-03-22T23:37:30.696Z,101822.59
2019-03-22T23:39:58.308Z,101821.28
2019-03-22T23:42:26.182Z,101817.80
2019-03-22T23:44:54.149Z,101811.23
2019-03-22T23:47:21.726Z,101801.56
2019-03-22T23:49:49.315Z,101796.31
2019-03-22T23:52:17.154Z,101787.98
2019-03-22T23:54:44.867Z,101785.36
2019-03-22T23:57:12.501Z,101777.45
2019-03-22T23:59:40.363Z,101781.83
